METAR AND TAF INFORMATION
METAR FOR YGTE
ADDS - METARS form results

(2324 UTC 28 February 2020)
Data provider http://aviationweather.gov/metar/data/
 
METAR text: YGTE 282314Z AUTO 34007KT 9999 // BKN015 30/27 Q1008
Conditions at: YGTE (GROOTE EYLANDT , AU) observed 2314 UTC 28 February 2020
Temperature: 30.0°C (86°F)
Dewpoint: 27.0°C (81°F) [RH = 84%]
Pressure (altimeter): 29.76 inches Hg (1008.0 mb)
Winds: from the NNW (340 degrees) at 8 MPH (7 knots; 3.6 m/s)
Visibility: 6 or more miles (10+ km)
Ceiling: 1500 feet AGL
Clouds: broken clouds at 1500 feet AGL
Weather: no significant weather observed at this time

METAR text: YGTE 282300Z AUTO 34007KT 9999 // SCT015 30/26 Q1008
Conditions at: YGTE (GROOTE EYLANDT , AU) observed 2300 UTC 28 February 2020
Temperature: 30.0°C (86°F)
Dewpoint: 26.0°C (79°F) [RH = 79%]
Pressure (altimeter): 29.76 inches Hg (1008.0 mb)
Winds: from the NNW (340 degrees) at 8 MPH (7 knots; 3.6 m/s)
Visibility: 6 or more miles (10+ km)
Ceiling: at least 12,000 feet AGL
Clouds: scattered clouds at 1500 feet AGL
Weather: no significant weather observed at this time

 AIRPORT MAP

 RUNWAY INFORMATION
Runway 10 Runway length 6237 ft Runway width 98 ft
Runway elevation 30 ft Runway displaced threshold 0 ft Runway heading 100
Runway 28 Runway length 6237 ft Runway width 98 ft
Runway elevation 51 ft Runway displaced threshold 0 ft Runway heading 280

 AIRPORT FREQUENCIES
Type CTAF Name CTAF Frequency 126 MHZ
Type FSS Name BRISBANE C Frequency 122.2 MHZ

 AIRPORT NEAR NAVIGATION AIDS
Type NDB-DME Name Groote Eylandt Frequency 407 KHZ



Powered by Virtual Airlines Manager [v2.6.2]